createdAt,value
2019-04-19T00:00:56.079Z,12.42
2019-04-19T00:01:55.989Z,12.44
2019-04-19T00:02:51.960Z,12.23
2019-04-19T00:03:51.178Z,12.21
2019-04-19T00:04:55.813Z,12.09
2019-04-19T00:05:52.407Z,11.93
2019-04-19T00:06:59.108Z,11.86
2019-04-19T00:07:55.550Z,11.75
2019-04-19T00:09:09.435Z,11.82
2019-04-19T00:09:58.918Z,11.62
2019-04-19T00:10:55.567Z,11.54
2019-04-19T00:12:01.958Z,11.49
2019-04-19T00:12:57.040Z,11.52
2019-04-19T00:13:52.165Z,11.65
2019-04-19T00:14:52.750Z,11.64
2019-04-19T00:15:52.469Z,11.74
2019-04-19T00:16:53.228Z,11.67
2019-04-19T00:18:00.754Z,11.78
2019-04-19T00:19:16.975Z,11.70
2019-04-19T00:20:21.143Z,11.72
2019-04-19T00:21:12.518Z,11.71
2019-04-19T00:22:33.245Z,11.57
2019-04-19T00:23:04.228Z,11.57
2019-04-19T00:23:55.213Z,11.64
2019-04-19T00:24:54.421Z,11.59
2019-04-19T00:25:53.951Z,11.47
2019-04-19T00:26:54.975Z,11.59
2019-04-19T00:27:58.270Z,11.50
2019-04-19T00:29:00.627Z,11.64
2019-04-19T00:30:02.261Z,11.53
2019-04-19T00:31:13.374Z,11.56
2019-04-19T00:32:12.891Z,11.56
2019-04-19T00:33:09.394Z,11.54
2019-04-19T00:33:58.821Z,11.41
2019-04-19T00:34:55.280Z,11.41
2019-04-19T00:35:55.888Z,11.36
2019-04-19T00:36:55.576Z,11.44
2019-04-19T00:38:02.376Z,11.41
2019-04-19T00:39:14.981Z,11.47
2019-04-19T00:40:15.407Z,11.29
2019-04-19T00:41:14.400Z,11.44
2019-04-19T00:42:16.562Z,11.41
2019-04-19T00:43:10.371Z,11.34
2019-04-19T00:44:13.431Z,11.28
2019-04-19T00:45:15.629Z,11.19
2019-04-19T00:46:06.645Z,11.02
2019-04-19T00:47:12.831Z,11.01
2019-04-19T00:48:08.719Z,10.96
2019-04-19T00:49:10.152Z,10.91
2019-04-19T00:50:07.243Z,10.92
2019-04-19T00:51:09.896Z,10.86
2019-04-19T00:52:12.422Z,10.92
2019-04-19T00:53:13.480Z,10.94
2019-04-19T00:54:07.286Z,10.92
2019-04-19T00:55:08.238Z,10.77
2019-04-19T00:56:06.566Z,10.77
2019-04-19T00:57:05.829Z,10.86
2019-04-19T00:58:08.388Z,10.71
2019-04-19T00:59:03.755Z,10.62
2019-04-19T00:59:59.777Z,10.59
2019-04-19T01:01:09.170Z,10.66
2019-04-19T01:02:05.446Z,10.76
2019-04-19T01:03:01.025Z,10.62
2019-04-19T01:03:59.573Z,10.59
2019-04-19T01:05:04.496Z,10.53
2019-04-19T01:06:05.388Z,10.59
2019-04-19T01:07:03.479Z,10.56
2019-04-19T01:08:09.358Z,10.56
2019-04-19T01:09:16.720Z,10.43
2019-04-19T01:10:16.006Z,10.44
2019-04-19T01:11:12.874Z,10.36
2019-04-19T01:12:15.643Z,10.39
2019-04-19T01:13:10.936Z,10.39
2019-04-19T01:14:16.980Z,10.37
2019-04-19T01:15:15.672Z,10.32
2019-04-19T01:16:14.934Z,10.42
2019-04-19T01:17:16.366Z,10.39
2019-04-19T01:18:15.136Z,10.39
2019-04-19T01:19:08.032Z,10.43
2019-04-19T01:20:06.394Z,10.43
2019-04-19T01:21:02.948Z,10.39
2019-04-19T01:22:09.742Z,10.39
2019-04-19T01:23:07.164Z,10.46
2019-04-19T01:24:05.026Z,10.40
2019-04-19T01:25:13.986Z,10.33
2019-04-19T01:26:05.761Z,10.28
2019-04-19T01:27:02.960Z,10.24
2019-04-19T01:28:08.866Z,10.26
2019-04-19T01:29:08.488Z,10.25
2019-04-19T01:30:04.507Z,10.28
2019-04-19T01:31:10.058Z,10.28
2019-04-19T01:32:09.789Z,10.33
2019-04-19T01:33:05.424Z,10.33
2019-04-19T01:34:14.713Z,10.32
2019-04-19T01:35:08.153Z,10.34
2019-04-19T01:36:04.386Z,10.30
2019-04-19T01:37:11.295Z,10.28
2019-04-19T01:38:08.099Z,10.10
2019-04-19T01:39:24.288Z,10.06
2019-04-19T01:40:21.305Z,10.04
2019-04-19T01:41:21.020Z,9.93
2019-04-19T01:42:24.731Z,9.93
2019-04-19T01:43:23.722Z,9.96
2019-04-19T01:45:24.025Z,9.91
2019-04-19T01:46:19.070Z,10.00
2019-04-19T01:47:27.858Z,9.93
2019-04-19T01:48:26.986Z,9.96
2019-04-19T01:49:15.935Z,9.94
2019-04-19T01:50:17.373Z,10.10
2019-04-19T01:51:20.018Z,10.06
2019-04-19T01:52:31.531Z,9.97
2019-04-19T01:53:24.440Z,9.89
2019-04-19T01:54:26.739Z,10.04
2019-04-19T01:55:15.022Z,10.01
2019-04-19T01:56:10.876Z,9.88
2019-04-19T01:57:09.745Z,9.85
2019-04-19T01:58:12.922Z,9.86
2019-04-19T01:59:07.843Z,9.93
2019-04-19T02:00:11.439Z,9.78
2019-04-19T02:01:14.744Z,9.89
2019-04-19T02:02:12.641Z,9.88
2019-04-19T02:03:09.784Z,9.86
2019-04-19T02:04:14.503Z,9.86
2019-04-19T02:05:13.147Z,9.83
2019-04-19T02:06:12.694Z,9.78
2019-04-19T02:07:13.454Z,9.78
2019-04-19T02:08:12.568Z,9.83
2019-04-19T02:09:09.124Z,9.73
2019-04-19T02:10:19.757Z,9.70
2019-04-19T02:11:23.230Z,9.60
2019-04-19T02:12:26.422Z,9.60
2019-04-19T02:13:19.823Z,9.53
2019-04-19T02:14:16.562Z,9.48
2019-04-19T02:15:15.664Z,9.56
2019-04-19T02:16:15.594Z,9.50
2019-04-19T02:17:12.991Z,9.45
2019-04-19T02:18:11.515Z,9.48
2019-04-19T02:19:16.263Z,9.45
2019-04-19T02:20:11.979Z,9.43
2019-04-19T02:21:13.131Z,9.13
2019-04-19T02:22:17.324Z,9.16
2019-04-19T02:23:14.649Z,9.06
2019-04-19T02:24:12.531Z,8.90
2019-04-19T02:25:17.423Z,8.88
2019-04-19T02:26:14.633Z,8.73
2019-04-19T02:27:14.750Z,8.97
2019-04-19T02:28:18.222Z,8.81
2019-04-19T02:29:16.830Z,8.87
2019-04-19T02:30:28.193Z,8.86
2019-04-19T02:31:41.627Z,8.72
2019-04-19T02:32:32.571Z,8.66
2019-04-19T02:33:37.687Z,8.47
2019-04-19T02:35:34.875Z,8.44
2019-04-19T02:36:49.316Z,8.44
2019-04-19T02:37:43.771Z,8.50
2019-04-19T02:38:52.103Z,8.55
2019-04-19T02:40:52.545Z,8.47
2019-04-19T02:41:38.508Z,8.40
2019-04-19T02:45:00.723Z,8.21
2019-04-19T02:45:35.931Z,8.12
2019-04-19T02:47:44.529Z,8.37
2019-04-19T02:48:51.652Z,8.35
2019-04-19T02:49:46.904Z,8.26
2019-04-19T02:51:50.318Z,8.50
2019-04-19T02:53:39.435Z,8.26
2019-04-19T02:55:03.842Z,8.29
2019-04-19T02:55:47.487Z,8.08
2019-04-19T02:56:51.866Z,8.08
2019-04-19T02:57:45.614Z,8.08
2019-04-19T02:58:42.075Z,7.99
2019-04-19T02:59:50.008Z,8.02
2019-04-19T03:00:52.765Z,8.02
2019-04-19T03:01:53.503Z,7.99
2019-04-19T03:02:50.312Z,7.85
2019-04-19T03:04:05.397Z,7.93
2019-04-19T03:04:53.368Z,7.90
2019-04-19T03:05:36.612Z,7.90
2019-04-19T03:06:29.206Z,7.79
2019-04-19T03:07:17.669Z,7.78
2019-04-19T03:08:18.598Z,7.79
2019-04-19T03:09:17.925Z,7.79
2019-04-19T03:10:22.448Z,7.74
2019-04-19T03:11:36.485Z,7.67
2019-04-19T03:12:37.945Z,7.63
2019-04-19T03:13:32.778Z,7.63
2019-04-19T03:14:31.550Z,7.55
2019-04-19T03:15:41.029Z,7.53
2019-04-19T03:16:38.564Z,7.50
2019-04-19T03:17:40.195Z,7.38
2019-04-19T03:18:37.393Z,7.42
2019-04-19T03:19:37.360Z,7.32
2019-04-19T03:20:34.821Z,7.35
2019-04-19T03:21:40.768Z,7.31
2019-04-19T03:22:35.740Z,7.34
2019-04-19T03:23:34.188Z,7.34
2019-04-19T03:24:36.890Z,7.26
2019-04-19T03:25:32.951Z,7.26
2019-04-19T03:26:36.237Z,7.35
2019-04-19T03:27:29.682Z,7.49
2019-04-19T03:28:31.340Z,7.50
2019-04-19T03:29:29.425Z,7.55
2019-04-19T03:30:46.798Z,7.63
2019-04-19T03:31:50.700Z,7.74
2019-04-19T03:33:54.785Z,7.62
2019-04-19T03:34:57.244Z,7.72
2019-04-19T03:35:45.380Z,7.79
2019-04-19T03:36:36.828Z,7.79
2019-04-19T03:37:39.664Z,7.79
2019-04-19T03:38:38.957Z,7.79
2019-04-19T03:39:48.889Z,7.74
2019-04-19T03:40:39.127Z,7.66
2019-04-19T03:41:57.456Z,7.62
2019-04-19T03:43:42.770Z,7.35
2019-04-19T03:44:36.060Z,7.38
2019-04-19T03:45:44.247Z,7.41
2019-04-19T03:46:49.788Z,7.41
2019-04-19T03:47:44.639Z,7.38
2019-04-19T03:48:46.275Z,7.42
2019-04-19T03:49:38.860Z,7.34
2019-04-19T03:50:37.535Z,7.29
2019-04-19T03:51:51.024Z,7.27
2019-04-19T03:52:43.999Z,7.29
2019-04-19T03:54:38.895Z,7.31
2019-04-19T03:55:43.148Z,7.23
2019-04-19T03:56:37.773Z,7.20
2019-04-19T03:57:35.466Z,7.17
2019-04-19T03:58:27.041Z,7.02
2019-04-19T03:59:25.232Z,7.23
2019-04-19T04:00:26.079Z,7.23
2019-04-19T04:01:27.985Z,7.27
2019-04-19T04:02:34.023Z,7.26
2019-04-19T04:03:31.301Z,7.37
2019-04-19T04:04:29.278Z,7.40
2019-04-19T04:05:29.443Z,7.40
2019-04-19T04:06:32.366Z,7.40
2019-04-19T04:07:29.438Z,7.40
2019-04-19T04:08:28.018Z,7.50
2019-04-19T04:09:34.588Z,7.58
2019-04-19T04:10:34.082Z,7.50
2019-04-19T04:11:29.852Z,7.62
2019-04-19T04:12:38.009Z,7.53
2019-04-19T04:13:37.857Z,7.53
2019-04-19T04:14:41.342Z,7.50
2019-04-19T04:15:45.851Z,7.60
2019-04-19T04:16:35.939Z,7.53
2019-04-19T04:17:28.907Z,7.66
2019-04-19T04:18:28.235Z,7.62
2019-04-19T04:19:29.284Z,7.72
2019-04-19T04:20:28.522Z,7.72
2019-04-19T04:21:35.529Z,7.72
2019-04-19T04:22:33.487Z,7.92
2019-04-19T04:23:36.481Z,7.77
2019-04-19T04:24:35.907Z,7.79
2019-04-19T04:25:39.787Z,7.82
2019-04-19T04:26:35.335Z,7.89
2019-04-19T04:27:45.559Z,7.93
2019-04-19T04:28:44.952Z,7.92
2019-04-19T04:29:38.653Z,8.03
2019-04-19T04:30:36.957Z,8.04
2019-04-19T04:31:43.603Z,8.07
2019-04-19T04:32:43.114Z,8.07
2019-04-19T04:33:42.340Z,8.11
2019-04-19T04:34:41.035Z,8.04
2019-04-19T04:36:50.547Z,8.07
2019-04-19T04:37:44.661Z,8.12
2019-04-19T04:38:37.276Z,8.11
2019-04-19T04:39:32.323Z,8.17
2019-04-19T04:40:31.755Z,8.18
2019-04-19T04:41:33.261Z,8.12
2019-04-19T04:42:39.508Z,8.08
2019-04-19T04:43:43.767Z,8.07
2019-04-19T04:44:50.476Z,8.12
2019-04-19T04:45:58.181Z,8.22
2019-04-19T04:46:57.743Z,8.20
2019-04-19T04:47:47.757Z,8.22
2019-04-19T04:48:52.673Z,8.12
2019-04-19T04:49:55.114Z,8.30
2019-04-19T04:50:57.484Z,8.22
2019-04-19T04:51:49.529Z,8.21
2019-04-19T04:52:37.825Z,8.30
2019-04-19T04:53:34.177Z,8.28
2019-04-19T04:54:33.452Z,8.28
2019-04-19T04:55:36.779Z,8.36
2019-04-19T04:56:45.758Z,8.36
2019-04-19T04:57:42.905Z,8.26
2019-04-19T04:58:38.550Z,8.32
2019-04-19T04:59:34.967Z,8.20
2019-04-19T05:00:44.356Z,8.29
2019-04-19T05:01:47.578Z,8.22
2019-04-19T05:02:51.287Z,8.42
2019-04-19T05:03:54.070Z,8.39
2019-04-19T05:04:43.543Z,8.42
2019-04-19T05:05:54.328Z,8.45
2019-04-19T05:06:59.354Z,8.48
2019-04-19T05:07:53.252Z,8.58
2019-04-19T05:08:50.098Z,8.48
2019-04-19T05:09:53.135Z,8.44
2019-04-19T05:10:49.555Z,8.54
2019-04-19T05:12:03.154Z,8.51
2019-04-19T05:13:10.688Z,8.60
2019-04-19T05:13:58.961Z,8.73
2019-04-19T05:14:51.241Z,8.66
2019-04-19T05:15:52.952Z,8.54
2019-04-19T05:17:04.385Z,8.47
2019-04-19T05:17:58.271Z,8.51
2019-04-19T05:18:55.667Z,8.40
2019-04-19T05:19:59.011Z,8.44
2019-04-19T05:20:50.914Z,8.40
2019-04-19T05:21:50.881Z,8.42
2019-04-19T05:22:55.051Z,8.51
2019-04-19T05:23:59.557Z,8.53
2019-04-19T05:25:05.081Z,8.63
2019-04-19T05:25:56.317Z,8.66
2019-04-19T05:26:57.619Z,8.72
2019-04-19T05:27:55.202Z,8.72
2019-04-19T05:28:54.405Z,8.72
2019-04-19T05:29:45.924Z,8.66
2019-04-19T05:30:46.963Z,8.75
2019-04-19T05:31:45.853Z,8.76
2019-04-19T05:32:43.949Z,8.68
2019-04-19T05:33:51.673Z,8.73
2019-04-19T05:34:54.926Z,8.83
2019-04-19T05:35:57.795Z,8.87
2019-04-19T05:37:01.471Z,8.87
2019-04-19T05:37:59.756Z,8.97
2019-04-19T05:38:59.810Z,9.09
2019-04-19T05:39:59.560Z,9.10
2019-04-19T05:40:53.466Z,9.09
2019-04-19T05:41:56.105Z,9.27
2019-04-19T05:42:56.551Z,9.21
2019-04-19T05:44:15.350Z,9.25
2019-04-19T05:45:15.425Z,9.31
2019-04-19T05:46:05.131Z,9.42
2019-04-19T05:47:01.251Z,9.39
2019-04-19T05:47:53.939Z,9.46
2019-04-19T05:48:48.725Z,9.50
2019-04-19T05:49:56.423Z,9.48
2019-04-19T05:51:09.076Z,9.46
2019-04-19T05:52:05.471Z,9.58
2019-04-19T05:52:55.078Z,9.67
2019-04-19T05:53:48.162Z,9.73
2019-04-19T05:54:42.974Z,9.71
2019-04-19T05:55:43.421Z,9.78
2019-04-19T05:56:45.112Z,9.76
2019-04-19T05:57:58.008Z,9.82
2019-04-19T05:58:54.725Z,9.86
2019-04-19T05:59:52.888Z,9.97
2019-04-19T06:00:55.222Z,9.99
2019-04-19T06:01:59.118Z,10.07
2019-04-19T06:02:56.791Z,10.09
2019-04-19T06:03:57.413Z,10.06
2019-04-19T06:05:10.381Z,10.09
2019-04-19T06:06:10.627Z,10.22
2019-04-19T06:07:04.852Z,10.34
2019-04-19T06:07:57.223Z,10.39
2019-04-19T06:08:45.613Z,10.55
2019-04-19T06:09:45.487Z,10.55
2019-04-19T06:10:51.369Z,10.68
2019-04-19T06:11:46.223Z,10.70
2019-04-19T06:12:45.288Z,10.62
2019-04-19T06:13:56.046Z,10.71
2019-04-19T06:15:08.150Z,10.65
2019-04-19T06:16:07.555Z,10.74
2019-04-19T06:16:58.544Z,10.76
2019-04-19T06:18:00.516Z,10.86
2019-04-19T06:18:55.887Z,10.86
2019-04-19T06:20:04.407Z,11.02
2019-04-19T06:21:10.471Z,11.11
2019-04-19T06:21:57.125Z,11.17
2019-04-19T06:23:07.136Z,11.36
2019-04-19T06:24:07.458Z,11.39
2019-04-19T06:25:01.130Z,11.47
2019-04-19T06:26:35.127Z,11.50
2019-04-19T06:27:13.284Z,11.44
2019-04-19T06:28:36.963Z,11.52
2019-04-19T06:29:22.624Z,11.64
2019-04-19T06:30:11.864Z,11.57
2019-04-19T06:31:12.866Z,11.68
2019-04-19T06:32:07.438Z,11.82
2019-04-19T06:33:07.241Z,11.87
2019-04-19T06:34:08.934Z,11.99
2019-04-19T06:35:02.495Z,12.13
2019-04-19T06:35:53.947Z,12.20
2019-04-19T06:36:58.624Z,12.21
2019-04-19T06:37:48.491Z,12.16
2019-04-19T06:38:48.698Z,12.34
2019-04-19T06:39:58.313Z,12.31
2019-04-19T06:40:55.496Z,12.44
2019-04-19T06:41:56.911Z,12.49
2019-04-19T06:42:56.812Z,12.54
2019-04-19T06:44:01.382Z,12.62
2019-04-19T06:45:07.686Z,12.75
2019-04-19T06:46:07.088Z,12.70
2019-04-19T06:47:00.837Z,12.74
2019-04-19T06:47:58.913Z,12.56
2019-04-19T06:48:59.086Z,12.66
2019-04-19T06:49:53.745Z,12.79
2019-04-19T06:50:54.702Z,12.85
2019-04-19T06:51:57.667Z,12.93
2019-04-19T06:52:51.023Z,12.89
2019-04-19T06:53:58.237Z,12.93
2019-04-19T06:54:51.719Z,12.96
2019-04-19T06:55:53.558Z,13.02
2019-04-19T06:57:00.727Z,12.97
2019-04-19T06:58:01.562Z,12.97
2019-04-19T06:59:02.890Z,13.06
2019-04-19T07:00:02.743Z,13.14
2019-04-19T07:01:04.469Z,13.27
2019-04-19T07:01:55.872Z,13.32
2019-04-19T07:02:52.216Z,13.46
2019-04-19T07:03:53.653Z,13.49
2019-04-19T07:05:10.625Z,13.54
2019-04-19T07:06:09.171Z,13.54
2019-04-19T07:07:10.578Z,13.63
2019-04-19T07:08:38.676Z,13.70
2019-04-19T07:09:21.408Z,13.70
2019-04-19T07:10:18.078Z,13.76
2019-04-19T07:11:16.285Z,13.92
2019-04-19T07:12:14.841Z,13.84
2019-04-19T07:13:09.813Z,13.87
2019-04-19T07:14:04.823Z,14.06
2019-04-19T07:15:23.785Z,14.25
2019-04-19T07:16:30.421Z,14.24
2019-04-19T07:17:13.647Z,14.24
2019-04-19T07:18:12.779Z,14.28
2019-04-19T07:19:13.433Z,14.34
2019-04-19T07:20:11.295Z,14.52
2019-04-19T07:21:16.386Z,14.72
2019-04-19T07:22:09.661Z,14.71
2019-04-19T07:23:10.235Z,14.90
2019-04-19T07:24:28.010Z,14.87
2019-04-19T07:25:20.089Z,14.84
2019-04-19T07:26:15.598Z,14.98
2019-04-19T07:27:13.900Z,15.02
2019-04-19T07:28:08.163Z,15.24
2019-04-19T07:28:56.145Z,15.24
2019-04-19T07:30:00.298Z,15.48
2019-04-19T07:31:01.510Z,15.59
2019-04-19T07:31:57.619Z,15.56
2019-04-19T07:33:04.554Z,15.72
2019-04-19T07:34:08.788Z,15.85
2019-04-19T07:35:11.575Z,15.97
2019-04-19T07:36:17.162Z,16.07
2019-04-19T07:37:17.157Z,16.26
2019-04-19T07:38:25.202Z,16.34
2019-04-19T07:39:13.344Z,16.50
2019-04-19T07:40:17.524Z,16.65
2019-04-19T07:41:16.670Z,16.77
2019-04-19T07:42:19.389Z,16.89
2019-04-19T07:43:10.663Z,16.99
2019-04-19T07:44:12.486Z,17.20
2019-04-19T07:45:04.921Z,17.14
2019-04-19T07:46:19.589Z,17.32
2019-04-19T07:47:11.484Z,17.23
2019-04-19T07:48:06.099Z,17.32
2019-04-19T07:48:59.903Z,17.47
2019-04-19T07:50:08.335Z,17.44
2019-04-19T07:51:05.931Z,17.53
2019-04-19T07:52:11.524Z,17.64
2019-04-19T07:53:02.575Z,17.73
2019-04-19T07:54:00.656Z,17.88
2019-04-19T07:55:04.411Z,17.89
2019-04-19T07:56:13.354Z,17.92
2019-04-19T07:57:22.612Z,17.99
2019-04-19T07:58:35.298Z,18.04
2019-04-19T07:59:30.607Z,18.15
2019-04-19T08:00:37.555Z,18.18
2019-04-19T08:02:30.022Z,18.09
2019-04-19T08:03:36.294Z,18.10
2019-04-19T08:04:54.513Z,18.24
2019-04-19T08:07:41.517Z,18.37
2019-04-19T08:09:43.104Z,18.52
2019-04-19T08:10:27.846Z,18.49
2019-04-19T08:12:25.739Z,18.54
2019-04-19T08:13:53.956Z,18.54
2019-04-19T08:14:40.101Z,18.55
2019-04-19T08:16:47.409Z,18.67
2019-04-19T08:27:27.955Z,19.13
2019-04-19T08:28:18.435Z,19.11
2019-04-19T08:29:17.249Z,18.99
2019-04-19T08:30:12.244Z,19.13
2019-04-19T08:31:07.822Z,19.28
2019-04-19T08:32:06.868Z,19.18
2019-04-19T08:33:06.485Z,19.25
2019-04-19T08:34:09.303Z,19.24
2019-04-19T08:35:09.386Z,19.11
2019-04-19T08:36:09.503Z,19.28
2019-04-19T08:37:18.401Z,19.24
2019-04-19T08:38:10.213Z,19.21
2019-04-19T08:39:23.088Z,19.24
2019-04-19T08:40:27.808Z,19.28
2019-04-19T08:41:18.895Z,19.35
2019-04-19T08:42:26.721Z,19.36
2019-04-19T08:44:21.840Z,19.58
2019-04-19T08:45:11.893Z,19.61
2019-04-19T08:46:08.991Z,19.69
2019-04-19T08:47:21.901Z,19.70
2019-04-19T08:48:15.378Z,19.83
2019-04-19T08:49:13.127Z,19.72
2019-04-19T08:50:10.995Z,19.73
2019-04-19T08:51:09.986Z,19.70
2019-04-19T08:52:12.914Z,19.87
2019-04-19T08:53:28.224Z,19.84
2019-04-19T08:54:31.798Z,19.88
2019-04-19T08:55:33.785Z,19.88
2019-04-19T08:56:25.260Z,19.84
2019-04-19T08:57:15.616Z,19.80
2019-04-19T08:58:23.879Z,19.79
2019-04-19T08:59:36.176Z,19.66
2019-04-19T09:00:42.852Z,19.78
2019-04-19T09:01:33.318Z,19.76
2019-04-19T09:02:28.742Z,19.78
2019-04-19T09:03:35.703Z,19.78
2019-04-19T09:04:30.415Z,20.03
2019-04-19T09:05:27.274Z,20.13
2019-04-19T09:07:08.344Z,20.21
2019-04-19T09:08:34.673Z,20.06
2019-04-19T09:09:32.649Z,20.16
2019-04-19T09:10:30.613Z,20.20
2019-04-19T09:11:31.551Z,20.24
2019-04-19T09:12:33.485Z,20.16
2019-04-19T09:13:33.940Z,20.15
2019-04-19T09:14:38.149Z,20.27
2019-04-19T09:15:29.060Z,20.24
2019-04-19T09:16:32.563Z,20.47
2019-04-19T09:17:46.154Z,20.21
2019-04-19T09:18:40.196Z,20.23
2019-04-19T09:19:56.948Z,20.30
2019-04-19T09:20:34.406Z,20.34
2019-04-19T09:21:27.391Z,20.21
2019-04-19T09:22:32.777Z,20.41
2019-04-19T09:23:27.256Z,20.42
2019-04-19T09:24:23.045Z,20.53
2019-04-19T09:25:24.422Z,20.58
2019-04-19T09:26:30.471Z,20.58
2019-04-19T09:27:39.536Z,20.71
2019-04-19T09:28:42.474Z,20.79
2019-04-19T09:29:53.536Z,20.83
2019-04-19T09:30:33.612Z,20.96
2019-04-19T09:31:29.804Z,20.95
2019-04-19T09:32:20.872Z,20.99
2019-04-19T09:33:23.628Z,21.02
2019-04-19T09:34:18.705Z,21.02
2019-04-19T09:35:19.267Z,21.09
2019-04-19T09:36:18.710Z,21.19
2019-04-19T09:37:23.883Z,21.26
2019-04-19T09:38:29.601Z,21.26
2019-04-19T09:39:31.508Z,21.13
2019-04-19T09:40:27.442Z,21.19
2019-04-19T09:41:24.764Z,21.24
2019-04-19T09:42:32.619Z,21.20
2019-04-19T09:43:32.065Z,21.23
2019-04-19T09:44:25.764Z,21.16
2019-04-19T09:45:16.986Z,21.17
2019-04-19T09:46:17.141Z,21.26
2019-04-19T09:47:18.653Z,21.38
2019-04-19T09:48:36.346Z,21.23
2019-04-19T09:49:36.862Z,21.39
2019-04-19T09:50:33.728Z,21.48
2019-04-19T09:51:35.295Z,21.54
2019-04-19T09:52:44.120Z,21.67
2019-04-19T09:53:59.062Z,21.51
2019-04-19T09:54:39.095Z,21.54
2019-04-19T09:55:43.255Z,21.59
2019-04-19T09:56:38.331Z,21.71
2019-04-19T09:57:38.561Z,21.74
2019-04-19T09:58:35.236Z,21.74
2019-04-19T09:59:27.158Z,21.88
2019-04-19T10:00:23.565Z,21.99
2019-04-19T10:01:23.175Z,22.07
2019-04-19T10:02:28.886Z,22.19
2019-04-19T10:03:28.059Z,22.19
2019-04-19T10:04:20.942Z,22.19
2019-04-19T10:05:20.966Z,22.06
2019-04-19T10:06:20.687Z,21.97
2019-04-19T10:07:20.822Z,21.78
2019-04-19T10:08:21.786Z,21.91
2019-04-19T10:09:22.368Z,21.98
2019-04-19T10:10:20.910Z,21.78
2019-04-19T10:11:21.089Z,22.04
2019-04-19T10:12:21.618Z,21.99
2019-04-19T10:13:21.704Z,22.22
2019-04-19T10:14:21.541Z,22.34
2019-04-19T10:15:22.301Z,22.41
2019-04-19T10:16:22.188Z,22.35
2019-04-19T10:17:22.535Z,22.41
2019-04-19T10:18:22.858Z,22.28
2019-04-19T10:19:22.294Z,22.35
2019-04-19T10:20:22.684Z,22.60
2019-04-19T10:21:29.611Z,22.54
2019-04-19T10:22:23.053Z,22.60
2019-04-19T10:23:23.108Z,22.60
2019-04-19T10:24:24.264Z,22.59
2019-04-19T10:25:23.347Z,22.59
2019-04-19T10:26:24.249Z,22.71
2019-04-19T10:27:24.746Z,22.65
2019-04-19T10:28:24.243Z,22.52
2019-04-19T10:29:30.571Z,22.52
2019-04-19T10:30:24.495Z,22.60
2019-04-19T10:31:25.367Z,22.56
2019-04-19T10:32:24.525Z,22.57
2019-04-19T10:33:33.152Z,22.49
2019-04-19T10:34:24.947Z,22.57
2019-04-19T10:35:25.337Z,22.44
2019-04-19T10:36:24.969Z,22.39
2019-04-19T10:37:25.925Z,22.25
2019-04-19T10:38:25.516Z,22.16
2019-04-19T10:39:25.840Z,22.17
2019-04-19T10:40:25.857Z,22.06
2019-04-19T10:41:25.755Z,22.31
2019-04-19T10:42:27.177Z,22.53
2019-04-19T10:43:27.313Z,22.71
2019-04-19T10:44:27.155Z,22.65
2019-04-19T10:45:26.389Z,22.69
2019-04-19T10:46:26.879Z,22.75
2019-04-19T10:47:29.178Z,22.80
2019-04-19T10:48:27.593Z,22.90
2019-04-19T10:49:36.061Z,23.01
2019-04-19T10:50:35.830Z,22.93
2019-04-19T10:51:27.821Z,23.17
2019-04-19T10:52:27.474Z,23.02
2019-04-19T10:53:28.246Z,22.89
2019-04-19T10:54:28.650Z,22.84
2019-04-19T10:55:28.536Z,22.90
2019-04-19T10:56:28.208Z,22.65
2019-04-19T10:57:29.754Z,22.54
2019-04-19T10:58:29.527Z,22.57
2019-04-19T10:59:28.611Z,22.72
2019-04-19T11:00:29.312Z,22.77
2019-04-19T11:01:29.441Z,22.74
2019-04-19T11:02:29.791Z,22.46
2019-04-19T11:03:29.294Z,22.57
2019-04-19T11:04:29.448Z,22.69
2019-04-19T11:05:29.615Z,22.83
2019-04-19T11:06:29.765Z,23.04
2019-04-19T11:07:29.931Z,23.02
2019-04-19T11:08:30.775Z,23.09
2019-04-19T11:09:31.126Z,23.19
2019-04-19T11:10:31.498Z,23.07
2019-04-19T11:11:31.780Z,23.32
2019-04-19T11:12:30.719Z,23.32
2019-04-19T11:13:32.240Z,23.39
2019-04-19T11:14:32.179Z,23.55
2019-04-19T11:15:31.190Z,23.43
2019-04-19T11:16:31.346Z,23.61
2019-04-19T11:17:31.746Z,23.50
2019-04-19T11:18:31.789Z,23.52
2019-04-19T11:19:48.392Z,23.57
2019-04-19T11:20:38.107Z,23.68
2019-04-19T11:21:32.149Z,23.67
2019-04-19T11:22:32.298Z,23.70
2019-04-19T11:23:33.598Z,23.89
2019-04-19T11:24:33.871Z,23.92
2019-04-19T11:25:33.392Z,23.85
2019-04-19T11:26:32.915Z,23.80
2019-04-19T11:27:33.150Z,23.72
2019-04-19T11:28:34.341Z,23.76
2019-04-19T11:29:34.543Z,23.82
2019-04-19T11:30:34.976Z,23.80
2019-04-19T11:31:33.935Z,23.80
2019-04-19T11:32:33.876Z,23.72
2019-04-19T11:33:34.944Z,23.65
2019-04-19T11:34:35.172Z,23.68
2019-04-19T11:35:35.242Z,23.67
2019-04-19T11:36:35.659Z,23.71
2019-04-19T11:37:35.034Z,23.67
2019-04-19T11:38:34.895Z,23.57
2019-04-19T11:39:35.102Z,23.62
2019-04-19T11:40:35.380Z,23.82
2019-04-19T11:41:35.361Z,23.76
2019-04-19T11:42:35.518Z,23.82
2019-04-19T11:43:35.760Z,23.75
2019-04-19T11:44:35.990Z,23.80
2019-04-19T11:45:36.001Z,23.79
2019-04-19T11:46:36.154Z,23.68
2019-04-19T11:47:37.537Z,23.47
2019-04-19T11:48:37.540Z,23.20
2019-04-19T11:49:40.277Z,23.34
2019-04-19T11:50:37.835Z,23.68
2019-04-19T11:51:36.941Z,23.76
2019-04-19T11:52:37.725Z,23.94
2019-04-19T11:53:38.482Z,23.98
2019-04-19T11:54:38.540Z,24.10
2019-04-19T11:55:38.368Z,23.97
2019-04-19T11:56:46.294Z,23.49
2019-04-19T11:57:38.740Z,23.50
2019-04-19T11:58:38.370Z,23.20
2019-04-19T11:59:44.422Z,23.20
2019-04-19T12:00:38.360Z,23.27
2019-04-19T12:01:39.730Z,23.34
2019-04-19T12:02:39.696Z,23.52
2019-04-19T12:03:41.634Z,23.34
2019-04-19T12:04:39.991Z,23.08
2019-04-19T12:05:40.013Z,23.24
2019-04-19T12:06:40.550Z,23.49
2019-04-19T12:07:39.462Z,23.53
2019-04-19T12:08:42.180Z,23.71
2019-04-19T12:09:40.679Z,23.86
2019-04-19T12:10:39.931Z,24.16
2019-04-19T12:11:40.273Z,24.31
2019-04-19T12:12:41.269Z,24.47
2019-04-19T12:13:41.176Z,24.54
2019-04-19T12:14:41.676Z,24.71
2019-04-19T12:15:42.087Z,24.61
2019-04-19T12:16:41.307Z,24.32
2019-04-19T12:17:42.050Z,24.26
2019-04-19T12:18:42.387Z,24.22
2019-04-19T12:19:49.711Z,24.22
2019-04-19T12:20:42.714Z,24.20
2019-04-19T12:21:41.663Z,24.00
2019-04-19T12:22:41.947Z,24.02
2019-04-19T12:23:41.971Z,24.02
2019-04-19T12:24:42.643Z,24.27
2019-04-19T12:25:42.282Z,24.24
2019-04-19T12:26:42.438Z,24.26
2019-04-19T12:27:43.610Z,24.34
2019-04-19T12:28:43.800Z,24.16
2019-04-19T12:29:47.725Z,24.05
2019-04-19T12:30:45.208Z,23.71
2019-04-19T12:31:43.333Z,23.64
2019-04-19T12:32:43.569Z,23.70
2019-04-19T12:33:43.558Z,24.02
2019-04-19T12:34:44.670Z,24.24
2019-04-19T12:35:43.871Z,24.47
2019-04-19T12:36:44.031Z,24.49
2019-04-19T12:37:45.006Z,24.60
2019-04-19T12:38:44.344Z,24.73
2019-04-19T12:39:45.177Z,24.47
2019-04-19T12:40:45.661Z,24.41
2019-04-19T12:41:45.986Z,24.34
2019-04-19T12:42:45.990Z,24.38
2019-04-19T12:43:45.904Z,24.53
2019-04-19T12:44:46.040Z,24.76
2019-04-19T12:45:47.789Z,24.88
2019-04-19T12:46:46.715Z,24.83
2019-04-19T12:47:47.259Z,24.44
2019-04-19T12:48:45.926Z,24.45
2019-04-19T12:49:53.720Z,24.24
2019-04-19T12:50:47.324Z,24.12
2019-04-19T12:51:46.575Z,24.16
2019-04-19T12:52:46.558Z,24.16
2019-04-19T12:53:48.789Z,24.23
2019-04-19T12:54:48.359Z,24.37
2019-04-19T12:55:48.440Z,24.59
2019-04-19T12:56:47.636Z,24.27
2019-04-19T12:57:48.265Z,24.41
2019-04-19T12:58:48.095Z,24.41
2019-04-19T12:59:48.222Z,24.24
2019-04-19T13:00:48.158Z,24.23
2019-04-19T13:01:48.559Z,24.19
2019-04-19T13:02:48.142Z,24.17
2019-04-19T13:03:48.392Z,24.01
2019-04-19T13:04:48.573Z,24.14
2019-04-19T13:05:49.059Z,24.26
2019-04-19T13:06:48.778Z,24.80
2019-04-19T13:07:49.318Z,24.90
2019-04-19T13:08:49.091Z,25.12
2019-04-19T13:09:49.250Z,25.17
2019-04-19T13:10:49.408Z,25.38
2019-04-19T13:11:50.610Z,25.15
2019-04-19T13:12:49.896Z,25.12
2019-04-19T13:13:50.080Z,25.15
2019-04-19T13:14:51.221Z,25.24
2019-04-19T13:15:50.254Z,25.31
2019-04-19T13:16:50.580Z,25.37
2019-04-19T13:17:51.847Z,25.57
2019-04-19T13:18:52.066Z,25.69
2019-04-19T13:20:02.250Z,25.57
2019-04-19T13:20:52.155Z,25.62
2019-04-19T13:21:52.204Z,25.64
2019-04-19T13:22:52.485Z,25.69
2019-04-19T13:23:52.641Z,25.25
2019-04-19T13:24:52.243Z,25.06
2019-04-19T13:25:51.786Z,24.87
2019-04-19T13:26:51.950Z,24.68
2019-04-19T13:27:55.099Z,24.45
2019-04-19T13:28:53.393Z,24.32
2019-04-19T13:30:04.505Z,24.16
2019-04-19T13:30:57.118Z,24.08
2019-04-19T13:31:52.740Z,24.20
2019-04-19T13:32:54.284Z,24.49